createdAt,value
2017-02-21T00:00:07.445Z,956.80
2017-02-21T00:01:08.085Z,956.85
2017-02-21T00:02:07.747Z,956.94
2017-02-21T00:03:07.316Z,956.87
2017-02-21T00:04:07.910Z,956.84
2017-02-21T00:05:07.423Z,956.86
2017-02-21T00:06:07.955Z,956.82
2017-02-21T00:07:07.571Z,956.80
2017-02-21T00:08:08.142Z,956.80
2017-02-21T00:09:08.005Z,956.74
2017-02-21T00:10:07.606Z,956.84
2017-02-21T00:11:08.150Z,956.77
2017-02-21T00:12:07.764Z,956.76
2017-02-21T00:13:07.381Z,956.87
2017-02-21T00:14:07.909Z,956.80
2017-02-21T00:15:07.399Z,956.84
2017-02-21T00:16:07.909Z,956.81
2017-02-21T00:17:07.679Z,956.75
2017-02-21T00:18:08.319Z,956.77
2017-02-21T00:19:08.142Z,956.84
2017-02-21T00:20:07.817Z,956.79
2017-02-21T00:21:07.513Z,956.79
2017-02-21T00:22:08.202Z,956.73
2017-02-21T00:23:07.691Z,956.88
2017-02-21T00:24:08.203Z,956.78
2017-02-21T00:25:07.694Z,956.78
2017-02-21T00:26:08.160Z,956.85
2017-02-21T00:27:08.162Z,956.76
2017-02-21T00:28:07.706Z,956.76
2017-02-21T00:29:08.836Z,956.83
2017-02-21T00:30:07.316Z,956.83
2017-02-21T00:31:08.026Z,956.81
2017-02-21T00:32:07.572Z,956.80
2017-02-21T00:33:08.226Z,956.69
2017-02-21T00:34:07.780Z,956.67
2017-02-21T00:35:07.359Z,956.74
2017-02-21T00:36:07.887Z,956.63
2017-02-21T00:37:07.513Z,956.73
2017-02-21T00:38:08.376Z,956.69
2017-02-21T00:39:07.922Z,956.65
2017-02-21T00:40:08.028Z,956.76
2017-02-21T00:41:07.489Z,956.73
2017-02-21T00:42:08.205Z,956.76
2017-02-21T00:43:07.788Z,956.72
2017-02-21T00:44:07.262Z,956.75
2017-02-21T00:45:07.913Z,956.76
2017-02-21T00:46:07.493Z,956.71
2017-02-21T00:47:08.153Z,956.68
2017-02-21T00:48:07.687Z,956.71
2017-02-21T00:49:08.279Z,956.68
2017-02-21T00:50:07.816Z,956.65
2017-02-21T00:51:07.302Z,956.66
2017-02-21T00:52:07.983Z,956.59
2017-02-21T00:53:07.579Z,956.64
2017-02-21T00:54:08.179Z,956.66
2017-02-21T00:55:07.686Z,956.61
2017-02-21T00:56:08.254Z,956.57
2017-02-21T00:57:07.920Z,956.54
2017-02-21T00:58:07.427Z,956.56
2017-02-21T00:59:07.554Z,956.55
2017-02-21T01:00:08.180Z,956.52
2017-02-21T01:01:07.753Z,956.43
2017-02-21T01:02:07.384Z,956.47
2017-02-21T01:03:08.152Z,956.45
2017-02-21T01:04:08.142Z,956.34
2017-02-21T01:05:07.720Z,956.50
2017-02-21T01:06:08.277Z,956.37
2017-02-21T01:07:07.943Z,956.31
2017-02-21T01:08:08.311Z,956.26
2017-02-21T01:09:07.807Z,956.35
2017-02-21T01:10:08.084Z,956.29
2017-02-21T01:11:07.846Z,956.36
2017-02-21T01:12:07.451Z,956.30
2017-02-21T01:13:08.069Z,956.35
2017-02-21T01:14:08.131Z,956.28
2017-02-21T01:15:07.979Z,956.27
2017-02-21T01:16:07.843Z,956.27
2017-02-21T01:17:07.643Z,956.30
2017-02-21T01:18:08.222Z,956.23
2017-02-21T01:19:07.767Z,956.33
2017-02-21T01:20:07.265Z,956.29
2017-02-21T01:21:07.788Z,956.34
2017-02-21T01:22:07.283Z,956.31
2017-02-21T01:23:07.774Z,956.26
2017-02-21T01:24:08.255Z,956.24
2017-02-21T01:25:08.157Z,956.24
2017-02-21T01:26:07.705Z,956.17
2017-02-21T01:27:07.686Z,956.30
2017-02-21T01:28:08.317Z,956.13
2017-02-21T01:29:08.021Z,956.31
2017-02-21T01:30:08.287Z,956.13
2017-02-21T01:31:07.845Z,956.10
2017-02-21T01:32:07.483Z,956.13
2017-02-21T01:33:08.012Z,956.20
2017-02-21T01:34:07.549Z,956.19
2017-02-21T01:35:07.746Z,956.07
2017-02-21T01:36:07.432Z,956.14
2017-02-21T01:37:07.296Z,956.11
2017-02-21T01:38:08.087Z,956.06
2017-02-21T01:39:07.756Z,956.18
2017-02-21T01:40:07.341Z,956.05
2017-02-21T01:41:07.969Z,956.12
2017-02-21T01:42:07.499Z,956.06
2017-02-21T01:43:08.018Z,956.04
2017-02-21T01:44:07.791Z,955.99
2017-02-21T01:45:07.495Z,956.07
2017-02-21T01:46:07.601Z,956.01
2017-02-21T01:47:08.241Z,956.03
2017-02-21T01:48:08.009Z,956.01
2017-02-21T01:49:07.851Z,956.04
2017-02-21T01:50:07.778Z,956.03
2017-02-21T01:51:07.557Z,956.11
2017-02-21T01:52:08.241Z,956.10
2017-02-21T01:53:07.681Z,956.10
2017-02-21T01:54:07.667Z,956.02
2017-02-21T01:55:08.196Z,956.10
2017-02-21T01:56:07.550Z,956.09
2017-02-21T01:57:08.085Z,956.03
2017-02-21T01:58:08.181Z,956.06
2017-02-21T01:59:07.759Z,956.10
2017-02-21T02:00:07.381Z,956.11
2017-02-21T02:01:07.960Z,956.06
2017-02-21T02:02:07.516Z,956.01
2017-02-21T02:03:08.123Z,956.07
2017-02-21T02:04:07.888Z,956.15
2017-02-21T02:05:07.770Z,956.08
2017-02-21T02:06:07.360Z,956.07
2017-02-21T02:07:07.828Z,956.09
2017-02-21T02:08:07.509Z,956.00
2017-02-21T02:09:08.060Z,955.99
2017-02-21T02:10:07.610Z,956.03
2017-02-21T02:11:08.060Z,955.98
2017-02-21T02:12:07.640Z,955.96
2017-02-21T02:13:08.264Z,955.96
2017-02-21T02:14:08.825Z,956.01
2017-02-21T02:15:08.288Z,955.95
2017-02-21T02:16:07.784Z,955.95
2017-02-21T02:17:07.425Z,955.89
2017-02-21T02:18:08.022Z,955.89
2017-02-21T02:19:08.032Z,955.84
2017-02-21T02:20:07.572Z,955.85
2017-02-21T02:21:08.005Z,955.85
2017-02-21T02:22:07.899Z,955.81
2017-02-21T02:23:07.464Z,955.82
2017-02-21T02:24:07.798Z,955.77
2017-02-21T02:25:07.523Z,955.78
2017-02-21T02:26:08.193Z,955.77
2017-02-21T02:27:08.122Z,955.75
2017-02-21T02:28:07.696Z,955.73
2017-02-21T02:29:08.350Z,955.72
2017-02-21T02:30:07.844Z,955.70
2017-02-21T02:31:08.072Z,955.83
2017-02-21T02:32:07.725Z,955.67
2017-02-21T02:33:08.310Z,955.72
2017-02-21T02:34:07.949Z,955.65
2017-02-21T02:35:07.846Z,955.73
2017-02-21T02:36:07.472Z,955.68
2017-02-21T02:37:08.220Z,955.63
2017-02-21T02:38:07.766Z,955.67
2017-02-21T02:39:07.316Z,955.67
2017-02-21T02:40:08.504Z,955.62
2017-02-21T02:41:08.396Z,955.62
2017-02-21T02:42:08.147Z,955.60
2017-02-21T02:43:07.898Z,955.58
2017-02-21T02:44:07.539Z,955.55
2017-02-21T02:45:08.135Z,955.50
2017-02-21T02:46:07.729Z,955.51
2017-02-21T02:47:08.348Z,955.47
2017-02-21T02:48:08.007Z,955.50
2017-02-21T02:49:07.871Z,955.46
2017-02-21T02:50:07.735Z,955.45
2017-02-21T02:51:07.551Z,955.46
2017-02-21T02:52:08.168Z,955.45
2017-02-21T02:53:07.760Z,955.44
2017-02-21T02:54:07.260Z,955.52
2017-02-21T02:55:07.764Z,955.47
2017-02-21T02:56:07.245Z,955.40
2017-02-21T02:57:07.846Z,955.44
2017-02-21T02:58:07.414Z,955.42
2017-02-21T02:59:08.010Z,955.39
2017-02-21T03:00:07.832Z,955.42
2017-02-21T03:01:07.401Z,955.33
2017-02-21T03:02:31.838Z,955.39
2017-02-21T03:03:07.689Z,955.35
2017-02-21T03:04:08.369Z,955.39
2017-02-21T03:05:08.121Z,955.27
2017-02-21T03:06:07.665Z,955.36
2017-02-21T03:07:08.216Z,955.38
2017-02-21T03:08:07.812Z,955.27
2017-02-21T03:09:07.378Z,955.26
2017-02-21T03:10:08.193Z,955.30
2017-02-21T03:11:07.882Z,955.32
2017-02-21T03:12:07.641Z,955.34
2017-02-21T03:13:08.318Z,955.28
2017-02-21T03:14:07.978Z,955.27
2017-02-21T03:15:07.497Z,955.19
2017-02-21T03:16:08.007Z,955.25
2017-02-21T03:17:07.722Z,955.27
2017-02-21T03:18:07.362Z,955.20
2017-02-21T03:19:08.251Z,955.16
2017-02-21T03:20:07.769Z,955.18
2017-02-21T03:21:07.619Z,955.20
2017-02-21T03:22:08.129Z,955.07
2017-02-21T03:23:07.981Z,955.15
2017-02-21T03:24:07.730Z,955.11
2017-02-21T03:25:07.510Z,955.17
2017-02-21T03:26:08.141Z,955.14
2017-02-21T03:27:07.730Z,955.19
2017-02-21T03:28:07.427Z,955.16
2017-02-21T03:29:08.057Z,955.12
2017-02-21T03:30:07.698Z,955.13
2017-02-21T03:31:08.221Z,955.09
2017-02-21T03:32:07.717Z,955.09
2017-02-21T03:33:08.332Z,955.06
2017-02-21T03:34:08.326Z,955.07
2017-02-21T03:35:07.851Z,955.11
2017-02-21T03:36:07.728Z,955.18
2017-02-21T03:37:07.322Z,955.16
2017-02-21T03:38:07.823Z,955.13
2017-02-21T03:39:07.332Z,955.15
2017-02-21T03:40:07.840Z,955.20
2017-02-21T03:41:07.330Z,955.19
2017-02-21T03:42:07.915Z,955.18
2017-02-21T03:43:07.563Z,955.18
2017-02-21T03:44:09.284Z,955.24
2017-02-21T03:45:08.005Z,955.18
2017-02-21T03:46:07.599Z,955.28
2017-02-21T03:47:08.446Z,955.19
2017-02-21T03:48:08.043Z,955.28
2017-02-21T03:49:07.688Z,955.19
2017-02-21T03:50:08.360Z,955.12
2017-02-21T03:51:08.033Z,955.15
2017-02-21T03:52:07.523Z,955.26
2017-02-21T03:53:08.134Z,955.22
2017-02-21T03:54:07.785Z,955.24
2017-02-21T03:55:07.393Z,955.13
2017-02-21T03:56:08.009Z,955.12
2017-02-21T03:57:07.606Z,955.10
2017-02-21T03:58:08.498Z,955.14
2017-02-21T03:59:08.135Z,955.06
2017-02-21T04:00:07.695Z,955.09
2017-02-21T04:01:08.289Z,955.13
2017-02-21T04:02:07.799Z,955.10
2017-02-21T04:03:07.471Z,955.05
2017-02-21T04:04:07.999Z,955.06
2017-02-21T04:05:07.474Z,955.18
2017-02-21T04:06:08.078Z,955.14
2017-02-21T04:07:07.689Z,955.12
2017-02-21T04:08:08.225Z,955.13
2017-02-21T04:09:07.757Z,955.14
2017-02-21T04:10:07.310Z,955.09
2017-02-21T04:11:07.911Z,955.04
2017-02-21T04:12:07.449Z,955.03
2017-02-21T04:13:08.513Z,955.02
2017-02-21T04:14:08.093Z,955.00
2017-02-21T04:15:07.684Z,955.01
2017-02-21T04:16:08.287Z,955.01
2017-02-21T04:17:08.036Z,954.97
2017-02-21T04:18:07.583Z,954.98
2017-02-21T04:19:08.186Z,954.99
2017-02-21T04:20:07.725Z,954.93
2017-02-21T04:21:08.298Z,954.88
2017-02-21T04:22:07.761Z,954.92
2017-02-21T04:24:07.808Z,954.94
2017-02-21T04:25:07.336Z,954.91
2017-02-21T04:26:07.855Z,954.98
2017-02-21T04:27:07.493Z,954.92
2017-02-21T04:28:08.156Z,954.96
2017-02-21T04:29:07.693Z,955.03
2017-02-21T04:30:08.244Z,954.88
2017-02-21T04:31:07.865Z,954.97
2017-02-21T04:32:07.433Z,954.94
2017-02-21T04:33:08.042Z,954.89
2017-02-21T04:34:07.562Z,954.97
2017-02-21T04:35:08.147Z,954.94
2017-02-21T04:36:07.949Z,954.96
2017-02-21T04:37:07.689Z,954.90
2017-02-21T04:38:08.133Z,954.89
2017-02-21T04:39:08.079Z,954.94
2017-02-21T04:40:07.835Z,954.97
2017-02-21T04:41:07.990Z,954.87
2017-02-21T04:42:07.598Z,954.83
2017-02-21T04:43:08.268Z,954.86
2017-02-21T04:44:07.896Z,954.84
2017-02-21T04:45:07.533Z,954.83
2017-02-21T04:46:08.172Z,954.77
2017-02-21T04:47:07.742Z,954.71
2017-02-21T04:48:07.267Z,954.83
2017-02-21T04:49:07.775Z,954.78
2017-02-21T04:50:07.634Z,954.84
2017-02-21T04:51:08.327Z,954.72
2017-02-21T04:52:07.941Z,954.77
2017-02-21T04:53:08.099Z,954.72
2017-02-21T04:54:07.655Z,954.79
2017-02-21T04:55:07.937Z,954.81
2017-02-21T04:56:07.445Z,954.76
2017-02-21T04:57:07.958Z,954.71
2017-02-21T04:58:07.582Z,954.73
2017-02-21T04:59:08.171Z,954.71
2017-02-21T05:00:07.877Z,954.69
2017-02-21T05:01:07.408Z,954.67
2017-02-21T05:02:08.008Z,954.72
2017-02-21T05:03:07.898Z,954.66
2017-02-21T05:04:07.463Z,954.71
2017-02-21T05:05:08.091Z,954.58
2017-02-21T05:06:07.647Z,954.51
2017-02-21T05:07:08.250Z,954.54
2017-02-21T05:08:07.841Z,954.55
2017-02-21T05:09:07.455Z,954.56
2017-02-21T05:10:08.076Z,954.52
2017-02-21T05:11:07.649Z,954.50
2017-02-21T05:12:08.454Z,954.56
2017-02-21T05:13:08.350Z,954.49
2017-02-21T05:14:07.905Z,954.37
2017-02-21T05:15:07.473Z,954.39
2017-02-21T05:16:08.064Z,954.36
2017-02-21T05:17:07.681Z,954.32
2017-02-21T05:18:08.222Z,954.38
2017-02-21T05:19:07.831Z,954.39
2017-02-21T05:20:07.345Z,954.43
2017-02-21T05:21:07.987Z,954.40
2017-02-21T05:22:07.740Z,954.44
2017-02-21T05:23:08.232Z,954.37
2017-02-21T05:24:07.685Z,954.39
2017-02-21T05:25:11.044Z,954.45
2017-02-21T05:26:07.856Z,954.46
2017-02-21T05:27:07.407Z,954.45
2017-02-21T05:28:08.005Z,954.37
2017-02-21T05:29:07.546Z,954.45
2017-02-21T05:30:08.214Z,954.38
2017-02-21T05:31:07.767Z,954.40
2017-02-21T05:32:07.308Z,954.40
2017-02-21T05:33:07.885Z,954.42
2017-02-21T05:34:07.525Z,954.42
2017-02-21T05:35:08.057Z,954.48
2017-02-21T05:36:07.827Z,954.43
2017-02-21T05:37:07.336Z,954.35
2017-02-21T05:38:07.827Z,954.43
2017-02-21T05:39:07.281Z,954.35
2017-02-21T05:40:07.762Z,954.39
2017-02-21T05:41:07.398Z,954.36
2017-02-21T05:42:08.029Z,954.25
2017-02-21T05:43:08.458Z,954.34
2017-02-21T05:44:08.305Z,954.30
2017-02-21T05:45:08.092Z,954.33
2017-02-21T05:46:07.934Z,954.30
2017-02-21T05:47:07.492Z,954.33
2017-02-21T05:48:08.083Z,954.30
2017-02-21T05:49:07.671Z,954.23
2017-02-21T05:50:08.268Z,954.25
2017-02-21T05:51:07.820Z,954.22
2017-02-21T05:52:07.350Z,954.23
2017-02-21T05:53:08.329Z,954.34
2017-02-21T05:54:07.812Z,954.25
2017-02-21T05:55:07.864Z,954.31
2017-02-21T05:56:07.468Z,954.47
2017-02-21T05:57:08.086Z,954.30
2017-02-21T05:58:07.744Z,954.41
2017-02-21T05:59:08.340Z,954.26
2017-02-21T06:00:07.845Z,954.26
2017-02-21T06:01:07.602Z,954.26
2017-02-21T06:02:08.205Z,954.29
2017-02-21T06:03:07.734Z,954.28
2017-02-21T06:04:08.346Z,954.27
2017-02-21T06:05:07.901Z,954.27
2017-02-21T06:06:07.442Z,954.25
2017-02-21T06:07:08.070Z,954.20
2017-02-21T06:08:07.686Z,954.33
2017-02-21T06:09:08.254Z,954.35
2017-02-21T06:10:07.740Z,954.32
2017-02-21T06:11:07.402Z,954.40
2017-02-21T06:12:08.014Z,954.46
2017-02-21T06:13:07.597Z,954.41
2017-02-21T06:14:08.202Z,954.40
2017-02-21T06:15:07.737Z,954.40
2017-02-21T06:16:08.417Z,954.46
2017-02-21T06:17:08.070Z,954.48
2017-02-21T06:18:07.918Z,954.41
2017-02-21T06:19:07.746Z,954.38
2017-02-21T06:20:08.375Z,954.41
2017-02-21T06:21:07.947Z,954.37
2017-02-21T06:22:07.598Z,954.35
2017-02-21T06:23:08.221Z,954.38
2017-02-21T06:24:07.806Z,954.37
2017-02-21T06:25:07.273Z,954.37
2017-02-21T06:26:07.516Z,954.41
2017-02-21T06:27:08.114Z,954.41
2017-02-21T06:28:07.810Z,954.37
2017-02-21T06:29:07.692Z,954.37
2017-02-21T06:30:08.173Z,954.33
2017-02-21T06:31:08.378Z,954.34
2017-02-21T06:32:07.917Z,954.39
2017-02-21T06:33:07.496Z,954.39
2017-02-21T06:34:08.035Z,954.35
2017-02-21T06:35:07.614Z,954.39
2017-02-21T06:36:08.212Z,954.39
2017-02-21T06:37:07.721Z,954.43
2017-02-21T06:38:08.262Z,954.41
2017-02-21T06:39:07.788Z,954.39
2017-02-21T06:40:07.671Z,954.38
2017-02-21T06:41:08.634Z,954.50
2017-02-21T06:42:08.179Z,954.47
2017-02-21T06:43:07.760Z,954.49
2017-02-21T06:44:08.288Z,954.46
2017-02-21T06:45:07.885Z,954.44
2017-02-21T06:46:07.450Z,954.45
2017-02-21T06:47:08.110Z,954.48
2017-02-21T06:48:07.870Z,954.44
2017-02-21T06:49:07.596Z,954.45
2017-02-21T06:50:08.134Z,954.36
2017-02-21T06:51:07.737Z,954.45
2017-02-21T06:52:08.558Z,954.41
2017-02-21T06:53:08.167Z,954.39
2017-02-21T06:54:07.953Z,954.30
2017-02-21T06:55:07.744Z,954.28
2017-02-21T06:56:08.341Z,954.25
2017-02-21T06:57:07.947Z,954.32
2017-02-21T06:58:07.600Z,954.34
2017-02-21T06:59:08.279Z,954.35
2017-02-21T07:00:07.998Z,954.30
2017-02-21T07:01:07.725Z,954.37
2017-02-21T07:02:08.321Z,954.56
2017-02-21T07:03:08.019Z,954.33
2017-02-21T07:04:07.676Z,954.32
2017-02-21T07:05:08.311Z,954.40
2017-02-21T07:06:07.866Z,954.30
2017-02-21T07:07:07.479Z,954.41
2017-02-21T07:08:08.115Z,954.42
2017-02-21T07:09:07.661Z,954.41
2017-02-21T07:10:08.322Z,954.38
2017-02-21T07:11:07.891Z,954.37
2017-02-21T07:12:07.747Z,954.33
2017-02-21T07:13:08.337Z,954.36
2017-02-21T07:14:07.853Z,954.44
2017-02-21T07:15:07.346Z,954.38
2017-02-21T07:16:08.816Z,954.46
2017-02-21T07:17:07.553Z,954.45
2017-02-21T07:18:08.140Z,954.42
2017-02-21T07:19:07.732Z,954.40
2017-02-21T07:20:08.364Z,954.40
2017-02-21T07:21:07.999Z,954.51
2017-02-21T07:22:07.645Z,954.42
2017-02-21T07:23:09.127Z,954.46
2017-02-21T07:24:07.678Z,954.37
2017-02-21T07:25:08.241Z,954.39
2017-02-21T07:26:07.723Z,954.36
2017-02-21T07:27:08.256Z,954.38
2017-02-21T07:28:07.858Z,954.39
2017-02-21T07:29:07.341Z,954.32
2017-02-21T07:30:07.995Z,954.25
2017-02-21T07:31:07.588Z,954.35
2017-02-21T07:32:08.197Z,954.25
2017-02-21T07:33:07.874Z,954.30
2017-02-21T07:34:07.559Z,954.29
2017-02-21T07:35:08.196Z,954.29
2017-02-21T07:36:07.669Z,954.33
2017-02-21T07:37:07.409Z,954.35
2017-02-21T07:38:07.903Z,954.33
2017-02-21T07:39:07.384Z,954.40
2017-02-21T07:40:07.846Z,954.34
2017-02-21T07:41:07.837Z,954.40
2017-02-21T07:42:07.280Z,954.44
2017-02-21T07:43:07.826Z,954.37
2017-02-21T07:44:07.624Z,954.34
2017-02-21T07:45:08.235Z,954.38
2017-02-21T07:46:08.095Z,954.37
2017-02-21T07:47:07.655Z,954.43
2017-02-21T07:48:08.101Z,954.43
2017-02-21T07:49:07.809Z,954.39
2017-02-21T07:50:07.326Z,954.48
2017-02-21T07:51:08.083Z,954.39
2017-02-21T07:52:07.775Z,954.40
2017-02-21T07:53:07.534Z,954.44
2017-02-21T07:54:08.223Z,954.44
2017-02-21T07:55:07.919Z,954.49
2017-02-21T07:56:07.516Z,954.52
2017-02-21T07:57:08.116Z,954.54
2017-02-21T07:58:07.584Z,954.55
2017-02-21T07:59:13.722Z,954.60
2017-02-21T08:00:08.291Z,954.47
2017-02-21T08:01:07.853Z,954.57
2017-02-21T08:02:07.349Z,954.50
2017-02-21T08:03:07.861Z,954.53
2017-02-21T08:04:07.546Z,954.50
2017-02-21T08:05:08.200Z,954.54
2017-02-21T08:06:07.915Z,954.46
2017-02-21T08:07:07.483Z,954.44
2017-02-21T08:08:08.051Z,954.40
2017-02-21T08:09:07.684Z,954.42
2017-02-21T08:10:08.257Z,954.38
2017-02-21T08:11:07.828Z,954.41
2017-02-21T08:12:07.398Z,954.51
2017-02-21T08:13:07.953Z,954.51
2017-02-21T08:14:07.501Z,954.41
2017-02-21T08:15:08.096Z,954.45
2017-02-21T08:16:07.632Z,954.46
2017-02-21T08:17:08.368Z,954.56
2017-02-21T08:18:07.937Z,954.51
2017-02-21T08:19:07.531Z,954.42
2017-02-21T08:20:08.196Z,954.42
2017-02-21T08:21:07.734Z,954.48
2017-02-21T08:22:07.270Z,954.42
2017-02-21T08:23:07.867Z,954.39
2017-02-21T08:24:07.414Z,954.39
2017-02-21T08:25:08.090Z,954.51
2017-02-21T08:26:07.605Z,954.46
2017-02-21T08:27:08.166Z,954.49
2017-02-21T08:28:07.837Z,954.42
2017-02-21T08:29:07.473Z,954.41
2017-02-21T08:30:08.022Z,954.46
2017-02-21T08:31:08.068Z,954.44
2017-02-21T08:32:07.575Z,954.49
2017-02-21T08:33:08.189Z,954.50
2017-02-21T08:34:07.724Z,954.53
2017-02-21T08:35:08.402Z,954.57
2017-02-21T08:36:08.193Z,954.52
2017-02-21T08:37:08.072Z,954.53
2017-02-21T08:38:07.613Z,954.53
2017-02-21T08:40:08.402Z,954.55
2017-02-21T08:43:08.220Z,954.61
2017-02-21T08:44:07.865Z,954.59
2017-02-21T08:45:07.426Z,954.65
2017-02-21T08:46:08.024Z,954.59
2017-02-21T08:47:07.529Z,954.75
2017-02-21T08:48:08.147Z,954.68
2017-02-21T08:49:07.856Z,954.69
2017-02-21T08:50:07.360Z,954.70
2017-02-21T08:51:07.985Z,954.68
2017-02-21T08:52:07.517Z,954.71
2017-02-21T08:53:08.132Z,954.62
2017-02-21T08:54:07.607Z,954.69
2017-02-21T08:55:08.128Z,954.74
2017-02-21T08:56:07.870Z,954.64
2017-02-21T08:57:07.435Z,954.68
2017-02-21T08:58:26.592Z,954.72
2017-02-21T08:59:08.442Z,954.76
2017-02-21T09:00:08.999Z,954.75
2017-02-21T09:01:07.612Z,954.77
2017-02-21T09:02:08.237Z,954.74
2017-02-21T09:03:07.789Z,954.73
2017-02-21T09:04:07.705Z,954.74
2017-02-21T09:05:08.417Z,954.74
2017-02-21T09:06:08.027Z,954.74
2017-02-21T09:07:07.592Z,954.74
2017-02-21T09:08:08.304Z,954.72
2017-02-21T09:09:08.148Z,954.71
2017-02-21T09:10:07.982Z,954.72
2017-02-21T09:11:07.623Z,954.75
2017-02-21T09:12:08.079Z,954.69
2017-02-21T09:13:07.831Z,954.71
2017-02-21T09:14:07.438Z,954.79
2017-02-21T09:15:08.027Z,954.76
2017-02-21T09:16:07.651Z,954.66
2017-02-21T09:17:08.373Z,954.70
2017-02-21T09:18:07.958Z,954.70
2017-02-21T09:19:07.469Z,954.69
2017-02-21T09:20:08.002Z,954.66
2017-02-21T09:21:07.932Z,954.71
2017-02-21T09:22:07.522Z,954.69
2017-02-21T09:23:08.274Z,954.62
2017-02-21T09:24:07.883Z,954.65
2017-02-21T09:25:07.493Z,954.69
2017-02-21T09:26:08.086Z,954.70
2017-02-21T09:27:07.633Z,954.66
2017-02-21T09:28:08.235Z,954.67
2017-02-21T09:29:07.734Z,954.64
2017-02-21T09:30:08.413Z,954.56
2017-02-21T09:31:07.944Z,954.64
2017-02-21T09:32:07.717Z,954.58
2017-02-21T09:33:08.329Z,954.62
2017-02-21T09:34:07.832Z,954.61
2017-02-21T09:35:07.403Z,954.63
2017-02-21T09:36:08.037Z,954.63
2017-02-21T09:37:07.618Z,954.60
2017-02-21T09:38:08.144Z,954.59
2017-02-21T09:39:07.654Z,954.60
2017-02-21T09:40:08.198Z,954.57
2017-02-21T09:41:07.762Z,954.49
2017-02-21T09:42:07.487Z,954.63
2017-02-21T09:43:08.046Z,954.51
2017-02-21T09:44:07.844Z,954.52
2017-02-21T09:45:07.474Z,954.58
2017-02-21T09:46:08.036Z,954.55
2017-02-21T09:47:07.655Z,954.55
2017-02-21T09:48:08.199Z,954.58
2017-02-21T09:49:07.782Z,954.52
2017-02-21T09:50:07.414Z,954.57
2017-02-21T09:51:08.100Z,954.57
2017-02-21T09:52:07.694Z,954.61
2017-02-21T09:53:08.258Z,954.61
2017-02-21T09:54:07.837Z,954.65
2017-02-21T09:55:07.705Z,954.62
2017-02-21T09:56:08.327Z,954.57
2017-02-21T09:57:07.911Z,954.62
2017-02-21T09:58:07.435Z,954.65
2017-02-21T09:59:08.081Z,954.61
2017-02-21T10:00:07.649Z,954.66
2017-02-21T10:01:08.290Z,954.64
2017-02-21T10:02:07.893Z,954.71
2017-02-21T10:03:07.421Z,954.68
2017-02-21T10:04:08.332Z,954.68
2017-02-21T10:05:08.139Z,954.68
2017-02-21T10:06:07.910Z,954.75
2017-02-21T10:07:07.749Z,954.63
2017-02-21T10:08:07.286Z,954.73
2017-02-21T10:09:07.800Z,954.72
2017-02-21T10:10:08.234Z,954.72
2017-02-21T10:11:07.830Z,954.72
2017-02-21T10:12:07.354Z,954.73
2017-02-21T10:13:07.939Z,954.69
2017-02-21T10:14:07.508Z,954.70
2017-02-21T10:15:08.046Z,954.70
2017-02-21T10:16:07.916Z,954.65
2017-02-21T10:17:07.734Z,954.72
2017-02-21T10:18:07.443Z,954.76
2017-02-21T10:19:08.076Z,954.68
2017-02-21T10:20:07.634Z,954.73
2017-02-21T10:21:08.278Z,954.70
2017-02-21T10:22:07.877Z,954.70
2017-02-21T10:23:07.349Z,954.76
2017-02-21T10:24:07.740Z,954.75
2017-02-21T10:25:07.533Z,954.77
2017-02-21T10:26:08.155Z,954.74
2017-02-21T10:27:08.218Z,954.78
2017-02-21T10:28:07.929Z,954.79
2017-02-21T10:29:07.373Z,954.81
2017-02-21T10:30:07.916Z,954.69
2017-02-21T10:31:07.459Z,954.77
2017-02-21T10:32:08.094Z,954.79
2017-02-21T10:33:07.671Z,954.78
2017-02-21T10:34:08.308Z,954.77
2017-02-21T10:35:07.800Z,954.76
2017-02-21T10:36:07.327Z,954.73
2017-02-21T10:37:07.969Z,954.79
2017-02-21T10:38:07.595Z,954.82
2017-02-21T10:39:07.352Z,954.81
2017-02-21T10:40:07.850Z,954.76
2017-02-21T10:41:07.371Z,954.81
2017-02-21T10:42:08.000Z,954.70
2017-02-21T10:43:07.502Z,954.81
2017-02-21T10:44:08.046Z,954.80
2017-02-21T10:45:07.617Z,954.79
2017-02-21T10:46:09.070Z,954.79
2017-02-21T10:47:08.328Z,954.76
2017-02-21T10:48:40.479Z,954.86
2017-02-21T10:49:08.105Z,954.79
2017-02-21T10:50:07.668Z,954.80
2017-02-21T10:51:08.317Z,954.82
2017-02-21T10:52:07.909Z,954.82
2017-02-21T10:53:07.485Z,954.85
2017-02-21T10:54:08.016Z,954.78
2017-02-21T10:55:07.602Z,954.85
2017-02-21T10:56:08.221Z,954.78
2017-02-21T10:57:07.760Z,954.77
2017-02-21T10:58:07.614Z,954.79
2017-02-21T10:59:08.125Z,954.77
2017-02-21T11:00:07.907Z,954.76
2017-02-21T11:01:07.466Z,954.74
2017-02-21T11:02:08.069Z,954.73
2017-02-21T11:03:07.746Z,954.70
2017-02-21T11:04:07.240Z,954.79
2017-02-21T11:05:08.063Z,954.68
2017-02-21T11:06:07.674Z,954.73
2017-02-21T11:07:08.215Z,954.73
2017-02-21T11:08:07.845Z,954.71
2017-02-21T11:09:07.598Z,954.73
2017-02-21T11:10:08.503Z,954.74
2017-02-21T11:11:08.329Z,954.74
2017-02-21T11:12:07.888Z,954.75
2017-02-21T11:13:07.420Z,954.71
2017-02-21T11:14:07.929Z,954.75
2017-02-21T11:15:07.509Z,954.74
2017-02-21T11:16:08.105Z,954.73
2017-02-21T11:17:07.891Z,954.73
2017-02-21T11:18:07.424Z,954.77
2017-02-21T11:19:07.980Z,954.75
2017-02-21T11:20:07.560Z,954.82
2017-02-21T11:21:08.222Z,954.65
2017-02-21T11:22:08.015Z,954.68
2017-02-21T11:23:07.651Z,954.66
2017-02-21T11:24:08.207Z,954.71
2017-02-21T11:25:07.715Z,954.69
2017-02-21T11:26:08.417Z,954.75
2017-02-21T11:27:07.899Z,954.62
2017-02-21T11:28:07.582Z,954.76
2017-02-21T11:29:08.146Z,954.71
2017-02-21T11:30:07.787Z,954.64
2017-02-21T11:31:07.535Z,954.68
2017-02-21T11:32:08.158Z,954.65
2017-02-21T11:33:07.751Z,954.65
2017-02-21T11:34:07.262Z,954.72
2017-02-21T11:35:07.766Z,954.60
2017-02-21T11:36:07.328Z,954.65
2017-02-21T11:37:07.960Z,954.66
2017-02-21T11:38:08.473Z,954.68
2017-02-21T11:39:08.272Z,954.71
2017-02-21T11:40:07.876Z,954.71
2017-02-21T11:41:07.414Z,954.55
2017-02-21T11:42:07.977Z,954.62
2017-02-21T11:43:07.487Z,954.64
2017-02-21T11:44:07.982Z,954.63
2017-02-21T11:45:07.487Z,954.73
2017-02-21T11:46:08.124Z,954.72
2017-02-21T11:47:07.666Z,954.67
2017-02-21T11:48:09.105Z,954.63
2017-02-21T11:49:07.788Z,954.69
2017-02-21T11:50:07.488Z,954.63
2017-02-21T11:51:08.087Z,954.61
2017-02-21T11:52:40.319Z,954.57
2017-02-21T11:54:07.573Z,954.69
2017-02-21T11:55:08.187Z,954.59
2017-02-21T11:56:07.711Z,954.74
2017-02-21T11:57:08.522Z,954.60
2017-02-21T11:58:08.393Z,954.65
2017-02-21T11:59:08.036Z,954.58
2017-02-21T12:00:07.713Z,954.66
2017-02-21T12:01:08.259Z,954.56
2017-02-21T12:02:07.846Z,954.63
2017-02-21T12:03:07.349Z,954.49
2017-02-21T12:04:08.000Z,954.39
2017-02-21T12:05:07.628Z,954.54
2017-02-21T12:06:08.148Z,954.53
2017-02-21T12:07:07.664Z,954.54
2017-02-21T12:08:08.279Z,954.52
2017-02-21T12:09:07.767Z,954.59
2017-02-21T12:10:07.308Z,954.53
2017-02-21T12:11:07.830Z,954.58
2017-02-21T12:12:07.598Z,954.57
2017-02-21T12:13:08.154Z,954.52
2017-02-21T12:14:07.995Z,954.62
2017-02-21T12:15:07.525Z,954.63
2017-02-21T12:16:08.401Z,954.63
2017-02-21T12:17:08.042Z,954.56
2017-02-21T12:18:07.645Z,954.53
2017-02-21T12:19:08.200Z,954.55
2017-02-21T12:20:07.765Z,954.56
2017-02-21T12:21:07.274Z,954.56
2017-02-21T12:22:07.879Z,954.56
2017-02-21T12:23:07.540Z,954.54
2017-02-21T12:24:08.145Z,954.60
2017-02-21T12:25:07.683Z,954.62
2017-02-21T12:26:08.289Z,954.56
2017-02-21T12:27:07.780Z,954.62
2017-02-21T12:28:07.295Z,954.61
2017-02-21T12:29:07.899Z,954.65
2017-02-21T12:30:07.467Z,954.71
2017-02-21T12:31:08.066Z,954.59
2017-02-21T12:32:07.634Z,954.58
2017-02-21T12:33:08.217Z,954.55